Time;durP1;ratioP1;P1;durP2;ratioP2;P2;SDS_P1;SDS_P2;PMS_P1;PMS_P2;Temp;Humidity;BMP_temperature;BMP_pressure;BME280_temperature;BME280_humidity;BME280_pressure;Samples;Min_cycle;Max_cycle;Signal;HPM_P1;HPM_P2
2023/02/03 00:01:47;;;;;;;5.03;1.17;;;15.80;74.30;;;;;;4062956;29;20055;-71
2023/02/03 00:04:28;;;;;;;5.30;1.45;;;15.90;74.00;;;;;;4046635;29;20139;-72
2023/02/03 00:07:13;;;;;;;4.57;1.43;;;15.90;73.90;;;;;;4047146;29;20184;-71
2023/02/03 00:09:56;;;;;;;3.42;1.25;;;15.90;73.90;;;;;;4056094;29;20106;-71
2023/02/03 00:12:37;;;;;;;5.93;1.65;;;15.90;74.90;;;;;;4062980;29;20059;-71
2023/02/03 00:15:19;;;;;;;4.65;1.35;;;15.90;73.90;;;;;;4062902;29;20176;-71
2023/02/03 00:18:00;;;;;;;2.85;1.17;;;16.00;73.80;;;;;;4062601;29;20054;-71
2023/02/03 00:20:40;;;;;;;3.08;1.13;;;16.00;74.70;;;;;;4062558;29;20139;-72
2023/02/03 00:23:23;;;;;;;3.10;1.20;;;16.00;73.60;;;;;;4062616;29;20048;-72
2023/02/03 00:26:08;;;;;;;2.63;1.15;;;16.10;73.30;;;;;;4062675;29;20295;-71
2023/02/03 00:28:50;;;;;;;5.47;1.98;;;16.10;73.00;;;;;;4062316;29;20054;-71
2023/02/03 00:31:31;;;;;;;4.95;1.50;;;16.10;72.90;;;;;;4050772;29;20196;-72
2023/02/03 00:34:12;;;;;;;3.60;1.42;;;16.10;73.00;;;;;;4062331;29;20051;-71
2023/02/03 00:36:53;;;;;;;3.22;1.08;;;16.00;73.20;;;;;;4062626;29;20403;-72
2023/02/03 00:39:37;;;;;;;4.30;2.00;;;16.00;73.40;;;;;;4062311;29;20464;-71
2023/02/03 00:42:18;;;;;;;2.80;1.20;;;15.90;73.50;;;;;;4062011;29;20066;-72
2023/02/03 00:44:59;;;;;;;6.22;1.63;;;15.90;74.00;;;;;;4062022;29;20067;-71
2023/02/03 00:47:41;;;;;;;3.25;1.10;;;15.90;74.00;;;;;;4049416;29;20055;-72
2023/02/03 00:50:22;;;;;;;4.53;1.27;;;15.90;74.00;;;;;;4051284;29;20103;-72
2023/02/03 00:53:03;;;;;;;3.80;1.43;;;15.90;74.00;;;;;;4065799;29;20127;-72
2023/02/03 00:55:45;;;;;;;4.90;1.10;;;15.90;74.00;;;;;;4065337;29;20223;-72
2023/02/03 00:58:26;;;;;;;5.47;1.38;;;16.00;73.80;;;;;;4040101;29;20520;-71
2023/02/03 01:01:07;;;;;;;4.45;1.20;;;16.00;73.70;;;;;;4065551;29;20059;-71
2023/02/03 01:03:49;;;;;;;4.88;1.05;;;16.00;73.50;;;;;;4065620;29;20138;-72
2023/02/03 01:06:29;;;;;;;3.30;1.15;;;16.00;73.50;;;;;;4053809;29;20055;-71
2023/02/03 01:09:10;;;;;;;2.42;0.80;;;16.10;73.50;;;;;;4065124;29;20085;-71
2023/02/03 01:11:53;;;;;;;7.55;1.52;;;16.20;73.30;;;;;;4065105;29;20063;-71
2023/02/03 01:14:33;;;;;;;5.55;1.35;;;16.20;72.90;;;;;;4065273;29;20086;-71
2023/02/03 01:17:17;;;;;;;2.97;1.20;;;16.20;72.70;;;;;;4064856;29;20051;-71
2023/02/03 01:19:58;;;;;;;8.90;1.67;;;16.10;72.70;;;;;;4053728;29;20060;-72
2023/02/03 01:22:40;;;;;;;5.20;1.35;;;16.10;72.90;;;;;;4053422;29;20869;-71
2023/02/03 01:25:21;;;;;;;4.68;2.35;;;16.00;73.10;;;;;;4065242;29;20051;-72
2023/02/03 01:28:04;;;;;;;5.85;1.45;;;16.00;73.50;;;;;;4064768;29;20055;-72
2023/02/03 01:30:45;;;;;;;7.63;1.63;;;16.10;73.30;;;;;;4065344;29;20062;-72
2023/02/03 01:33:26;;;;;;;2.42;1.15;;;16.10;73.10;;;;;;4053685;29;20059;-72
2023/02/03 01:36:08;;;;;;;4.78;1.23;;;16.10;73.00;;;;;;4053519;29;20135;-72
2023/02/03 01:38:49;;;;;;;3.33;1.30;;;16.10;72.90;;;;;;4064343;29;20169;-72
2023/02/03 01:41:32;;;;;;;5.60;2.13;;;16.10;73.00;;;;;;4065178;29;20119;-72
2023/02/03 01:44:39;;;;;;;5.00;1.20;;;16.00;73.00;;;;;;4065912;29;20051;-72
2023/02/03 01:47:28;;;;;;;10.18;1.52;;;16.00;73.60;;;;;;4053381;29;20180;-72
2023/02/03 01:50:14;;;;;;;3.53;1.10;;;16.00;73.70;;;;;;4049097;29;20143;-71
2023/02/03 01:53:00;;;;;;;4.07;1.48;;;16.00;73.60;;;;;;4049015;29;20212;-72
2023/02/03 01:55:44;;;;;;;5.45;1.40;;;16.00;73.40;;;;;;4062127;29;20051;-71
2023/02/03 01:58:28;;;;;;;5.78;1.00;;;16.10;73.30;;;;;;4052590;29;20122;-71
2023/02/03 02:01:11;;;;;;;4.60;1.38;;;16.00;73.40;;;;;;4037269;29;20536;-72
2023/02/03 02:03:55;;;;;;;6.97;1.38;;;16.00;74.40;;;;;;4048222;29;20123;-71
2023/02/03 02:06:36;;;;;;;7.28;1.95;;;16.00;73.70;;;;;;4048712;29;20067;-71
2023/02/03 02:09:18;;;;;;;6.03;1.63;;;16.10;73.50;;;;;;4054950;29;20557;-71
2023/02/03 02:11:59;;;;;;;5.45;1.40;;;16.20;72.90;;;;;;4064144;29;20054;-72
2023/02/03 02:14:40;;;;;;;8.05;2.00;;;16.20;72.70;;;;;;4052516;29;20059;-72
2023/02/03 02:17:38;;;;;;;13.88;2.45;;;16.20;72.40;;;;;;4062829;29;20095;-71
2023/02/03 02:20:35;;;;;;;5.47;1.67;;;16.20;72.50;;;;;;4051184;29;20195;-71
2023/02/03 02:23:46;;;;;;;3.40;1.20;;;16.30;72.30;;;;;;4062918;29;20129;-72
2023/02/03 02:26:54;;;;;;;7.43;1.45;;;16.40;72.10;;;;;;4063171;29;20054;-72
2023/02/03 02:30:01;;;;;;;7.65;1.88;;;16.40;72.00;;;;;;4047682;29;20071;-71
2023/02/03 02:32:57;;;;;;;3.58;1.38;;;16.30;71.80;;;;;;4036046;29;20067;-72
2023/02/03 02:35:48;;;;;;;13.10;2.22;;;16.30;72.20;;;;;;4043612;29;20063;-72
2023/02/03 02:38:45;;;;;;;7.53;1.60;;;16.20;72.60;;;;;;4051812;29;20059;-71
2023/02/03 02:41:35;;;;;;;10.00;1.88;;;16.20;72.70;;;;;;4051353;29;20123;-72
2023/02/03 02:44:22;;;;;;;6.10;1.60;;;16.10;72.70;;;;;;4049300;29;20482;-72
2023/02/03 02:47:08;;;;;;;9.70;2.20;;;16.10;72.90;;;;;;4062986;29;20128;-71
2023/02/03 02:49:59;;;;;;;5.93;1.55;;;16.00;72.90;;;;;;4051343;29;20047;-71
2023/02/03 02:52:42;;;;;;;3.97;1.42;;;16.00;73.40;;;;;;4062649;29;20072;-72
2023/02/03 02:55:29;;;;;;;3.65;1.20;;;16.00;73.70;;;;;;4063202;29;20395;-72
2023/02/03 02:58:16;;;;;;;4.65;1.55;;;16.10;73.30;;;;;;4051294;29;20055;-72
2023/02/03 03:00:58;;;;;;;6.75;2.05;;;16.20;72.80;;;;;;4035643;29;20115;-72
2023/02/03 03:03:41;;;;;;;6.90;1.67;;;16.20;72.60;;;;;;4047518;29;20132;-72
2023/02/03 03:06:29;;;;;;;5.60;1.75;;;16.30;72.20;;;;;;4047479;29;20516;-71
2023/02/03 03:09:13;;;;;;;4.18;1.30;;;16.30;72.10;;;;;;4047205;29;20391;-72
2023/02/03 03:11:59;;;;;;;8.18;1.55;;;16.30;71.80;;;;;;4035776;29;20601;-72
2023/02/03 03:14:44;;;;;;;7.80;2.17;;;16.30;72.00;;;;;;4036180;29;20086;-72
2023/02/03 03:17:31;;;;;;;7.72;1.70;;;16.40;71.80;;;;;;4008223;29;1105315;-72
2023/02/03 03:20:16;;;;;;;6.15;1.40;;;16.40;71.60;;;;;;4051279;29;20051;-72
2023/02/03 03:23:03;;;;;;;8.88;1.75;;;16.40;71.50;;;;;;4063134;29;20503;-72
2023/02/03 03:25:47;;;;;;;5.45;1.70;;;16.50;71.70;;;;;;4062896;29;20063;-72
2023/02/03 03:28:33;;;;;;;10.05;2.42;;;16.50;71.50;;;;;;4051753;29;20115;-72
2023/02/03 03:31:14;;;;;;;6.63;1.55;;;16.50;71.30;;;;;;4063136;29;20063;-72
2023/02/03 03:33:55;;;;;;;;;;;16.50;71.40;;;;;;4063789;29;20051;-72
2023/02/03 03:36:42;;;;;;;7.97;2.10;;;16.50;71.40;;;;;;4047679;29;19934;-71
2023/02/03 03:39:28;;;;;;;6.40;1.65;;;16.40;72.20;;;;;;4036288;29;20055;-72
2023/02/03 03:42:17;;;;;;;7.53;1.60;;;16.40;71.70;;;;;;4047413;29;20063;-72
2023/02/03 03:45:02;;;;;;;8.73;1.92;;;16.40;71.70;;;;;;4047655;29;20116;-72
2023/02/03 03:47:48;;;;;;;2.95;1.20;;;16.50;71.40;;;;;;4054549;29;20063;-72
2023/02/03 03:50:34;;;;;;;9.50;1.60;;;16.50;71.30;;;;;;4062793;29;20146;-71
2023/02/03 03:53:17;;;;;;;10.07;2.35;;;16.50;71.20;;;;;;4063235;29;20192;-72
2023/02/03 03:56:02;;;;;;;9.18;1.92;;;16.50;72.00;;;;;;4062808;29;20510;-72
2023/02/03 03:58:46;;;;;;;6.30;1.80;;;16.40;71.50;;;;;;4062752;29;20055;-72
2023/02/03 04:01:28;;;;;;;6.95;2.05;;;16.40;71.70;;;;;;4047150;29;20185;-71
2023/02/03 04:04:10;;;;;;;11.43;2.35;;;16.40;71.90;;;;;;4057059;29;20044;-72
2023/02/03 04:06:53;;;;;;;5.70;1.75;;;16.40;71.80;;;;;;4062974;29;20108;-71
2023/02/03 04:09:35;;;;;;;7.55;1.45;;;16.50;71.70;;;;;;4062730;29;20067;-72
2023/02/03 04:12:23;;;;;;;6.53;1.63;;;16.50;71.50;;;;;;4063083;29;20054;-72
2023/02/03 04:15:04;;;;;;;6.85;1.85;;;16.40;71.30;;;;;;4063030;29;20542;-72
2023/02/03 04:17:45;;;;;;;7.32;1.80;;;16.40;71.70;;;;;;4062443;29;20055;-71
2023/02/03 04:20:27;;;;;;;4.97;0.93;;;16.40;71.80;;;;;;4062554;29;20806;-71
2023/02/03 04:23:07;;;;;;;;;;;16.40;71.60;;;;;;4062971;29;20059;-71
2023/02/03 04:25:48;;;;;;;5.35;1.52;;;16.50;71.50;;;;;;4063632;29;20568;-71
2023/02/03 04:28:30;;;;;;;8.32;1.98;;;16.50;71.20;;;;;;4050300;29;20063;-71
2023/02/03 04:31:11;;;;;;;7.68;1.92;;;16.50;71.40;;;;;;4050440;29;20067;-71
2023/02/03 04:33:52;;;;;;;10.57;2.40;;;16.50;71.30;;;;;;4050330;29;20506;-71
2023/02/03 04:36:33;;;;;;;8.27;2.75;;;16.40;71.50;;;;;;4063583;29;20189;-71
2023/02/03 04:39:14;;;;;;;7.85;2.05;;;16.50;71.60;;;;;;4053984;29;20084;-71
2023/02/03 04:41:55;;;;;;;8.37;1.67;;;16.40;72.50;;;;;;4065405;29;20054;-71
2023/02/03 04:44:37;;;;;;;7.30;1.77;;;16.40;71.00;;;;;;4065062;29;20291;-72
2023/02/03 04:47:19;;;;;;;6.18;1.42;;;16.40;71.30;;;;;;4065514;29;20055;-71
2023/02/03 04:50:00;;;;;;;8.35;1.75;;;16.40;71.80;;;;;;4065242;29;20059;-71
2023/02/03 04:52:41;;;;;;;4.35;1.63;;;16.40;71.90;;;;;;4065604;29;20051;-71
2023/02/03 04:55:22;;;;;;;7.55;1.73;;;16.40;72.00;;;;;;4065525;29;20513;-71
2023/02/03 04:58:03;;;;;;;6.82;1.45;;;16.40;71.80;;;;;;4065245;29;20127;-71
2023/02/03 05:00:46;;;;;;;5.68;1.85;;;16.40;71.60;;;;;;4064911;29;20050;-72
2023/02/03 05:03:26;;;;;;;8.82;2.20;;;16.30;72.20;;;;;;4065715;29;20195;-72
2023/02/03 05:06:07;;;;;;;6.75;1.60;;;16.40;72.40;;;;;;4065403;29;20050;-71
2023/02/03 05:08:48;;;;;;;5.65;1.70;;;16.40;72.10;;;;;;4065142;29;20399;-72
2023/02/03 05:11:30;;;;;;;10.88;2.58;;;16.50;71.70;;;;;;4065136;29;20066;-71
2023/02/03 05:14:10;;;;;;;3.70;1.20;;;16.50;71.60;;;;;;4065051;29;20443;-72
2023/02/03 05:16:53;;;;;;;5.00;1.42;;;16.50;71.40;;;;;;4065034;29;20051;-71
2023/02/03 05:19:34;;;;;;;8.02;1.73;;;16.40;71.30;;;;;;4065274;29;20074;-71
2023/02/03 05:22:15;;;;;;;4.43;1.60;;;16.40;71.90;;;;;;4065184;29;20051;-72
2023/02/03 05:24:56;;;;;;;5.57;1.40;;;16.40;71.90;;;;;;4064978;29;20559;-71
2023/02/03 05:27:38;;;;;;;3.05;1.55;;;16.40;71.80;;;;;;4053327;29;20055;-71
2023/02/03 05:30:19;;;;;;;8.10;2.00;;;16.50;71.40;;;;;;4064886;29;20184;-71
2023/02/03 05:33:01;;;;;;;11.63;2.13;;;16.50;71.40;;;;;;4064409;29;20051;-71
2023/02/03 05:35:42;;;;;;;8.38;1.92;;;16.50;71.30;;;;;;4049305;29;20059;-72
2023/02/03 05:38:24;;;;;;;5.13;2.00;;;16.40;71.30;;;;;;4048992;29;20146;-71
2023/02/03 05:44:04;;;;;;;5.28;1.60;;;16.40;71.80;;;;;;4064302;29;20051;-72
2023/02/03 05:46:45;;;;;;;5.55;1.95;;;16.40;71.60;;;;;;4064234;29;20444;-71
2023/02/03 05:49:27;;;;;;;11.63;2.22;;;16.50;71.50;;;;;;4064302;29;20515;-72
2023/02/03 05:52:08;;;;;;;10.25;1.92;;;16.50;71.40;;;;;;4064229;29;20832;-72
2023/02/03 05:54:49;;;;;;;7.50;1.73;;;16.50;71.30;;;;;;4064425;29;20055;-72
2023/02/03 05:57:30;;;;;;;7.50;2.22;;;16.50;71.60;;;;;;4064908;29;20119;-71
2023/02/03 06:00:13;;;;;;;5.95;1.80;;;16.40;72.90;;;;;;4064747;29;20059;-70
2023/02/03 06:02:55;;;;;;;8.05;1.95;;;16.50;71.80;;;;;;4052702;29;20051;-71
2023/02/03 06:05:40;;;;;;;11.25;2.85;;;16.50;71.40;;;;;;4048958;29;20054;-71
2023/02/03 06:08:21;;;;;;;5.82;2.17;;;16.60;71.20;;;;;;4048434;29;20511;-72
2023/02/03 06:11:02;;;;;;;8.45;1.58;;;16.50;71.00;;;;;;4048549;29;20068;-72
2023/02/03 06:13:42;;;;;;;6.70;2.13;;;16.50;71.30;;;;;;4048602;29;20047;-71
2023/02/03 06:16:24;;;;;;;6.43;1.95;;;16.50;71.40;;;;;;4048260;29;20059;-71
2023/02/03 06:19:05;;;;;;;8.48;2.60;;;16.40;71.70;;;;;;4048381;29;20052;-70
2023/02/03 06:21:47;;;;;;;10.60;1.75;;;16.40;72.00;;;;;;4051340;29;20511;-71
2023/02/03 06:24:28;;;;;;;10.02;2.05;;;16.50;71.80;;;;;;4064060;29;20126;-71
2023/02/03 06:27:08;;;;;;;12.38;2.50;;;16.50;71.60;;;;;;4052544;29;20055;-71
2023/02/03 06:29:50;;;;;;;12.13;2.40;;;16.50;72.20;;;;;;4051691;29;20054;-72
2023/02/03 06:32:31;;;;;;;7.43;1.95;;;16.50;71.20;;;;;;4055958;29;20188;-72
2023/02/03 06:35:12;;;;;;;12.90;2.83;;;16.50;71.40;;;;;;4063201;29;20934;-71
2023/02/03 06:37:55;;;;;;;7.82;1.92;;;16.40;71.80;;;;;;4048206;29;20047;-70
2023/02/03 06:40:35;;;;;;;6.93;1.60;;;16.40;71.90;;;;;;4062925;29;20071;-71
2023/02/03 06:43:17;;;;;;;12.88;2.20;;;16.50;71.90;;;;;;4063950;29;20403;-71
2023/02/03 06:45:57;;;;;;;10.75;2.35;;;16.50;71.50;;;;;;4063810;29;20147;-71
2023/02/03 06:48:39;;;;;;;11.43;2.40;;;16.50;71.70;;;;;;4063273;29;20628;-71
2023/02/03 06:51:19;;;;;;;11.35;2.42;;;16.50;71.60;;;;;;4063955;29;20180;-71
2023/02/03 06:54:03;;;;;;;6.82;1.85;;;16.50;71.70;;;;;;4064016;29;20054;-72
2023/02/03 06:56:44;;;;;;;11.73;2.50;;;16.40;71.80;;;;;;4063575;29;20059;-72
2023/02/03 06:59:26;;;;;;;13.00;2.40;;;16.40;72.80;;;;;;4048147;29;20055;-72
2023/02/03 07:02:07;;;;;;;10.85;3.17;;;16.30;72.30;;;;;;4048252;29;20423;-71
2023/02/03 07:04:48;;;;;;;11.95;2.65;;;16.30;72.20;;;;;;4048050;29;20179;-71
2023/02/03 07:07:31;;;;;;;13.02;4.07;;;16.30;72.60;;;;;;4036601;29;20076;-71
2023/02/03 07:10:13;;;;;;;12.02;2.55;;;16.30;72.50;;;;;;4042563;29;20582;-71
2023/02/03 07:12:54;;;;;;;11.35;2.90;;;16.30;72.50;;;;;;4055091;29;20103;-66
2023/02/03 07:15:35;;;;;;;12.65;2.60;;;16.30;72.70;;;;;;4051320;29;20415;-65
2023/02/03 07:18:18;;;;;;;9.45;2.50;;;16.30;73.20;;;;;;4052680;29;20493;-66
2023/02/03 07:21:19;;;;;;;10.90;2.83;;;16.30;73.60;;;;;;4063063;29;20059;-64
2023/02/03 07:24:01;;;;;;;15.77;2.63;;;16.30;73.30;;;;;;4071693;29;20051;-65
2023/02/03 07:26:43;;;;;;;15.13;2.90;;;16.30;73.20;;;;;;4062536;29;20574;-66
2023/02/03 07:29:23;;;;;;;17.08;2.75;;;16.40;73.10;;;;;;4063049;29;20076;-65
2023/02/03 07:32:05;;;;;;;11.10;2.65;;;16.30;73.00;;;;;;4063090;29;20558;-66
2023/02/03 07:34:46;;;;;;;12.35;2.63;;;16.30;73.10;;;;;;4062838;29;20055;-65
2023/02/03 07:37:26;;;;;;;14.23;2.85;;;16.30;73.10;;;;;;4051931;29;20115;-66
2023/02/03 07:40:08;;;;;;;13.30;2.35;;;16.30;73.10;;;;;;4062319;29;20073;-66
2023/02/03 07:42:50;;;;;;;;;;;16.20;73.30;;;;;;4063621;29;20116;-66
2023/02/03 07:45:32;;;;;;;12.20;2.85;;;16.10;73.50;;;;;;4051321;29;19930;-66
2023/02/03 07:48:12;;;;;;;17.38;3.47;;;16.10;73.70;;;;;;4062792;29;20059;-66
2023/02/03 07:50:53;;;;;;;13.05;2.50;;;16.00;74.00;;;;;;4062925;29;20055;-66
2023/02/03 07:53:35;;;;;;;10.15;2.63;;;16.00;74.60;;;;;;4063316;29;20108;-66
2023/02/03 07:56:16;;;;;;;12.35;3.17;;;16.10;74.40;;;;;;4046731;29;20059;-65
2023/02/03 07:58:58;;;;;;;17.60;3.35;;;16.20;74.40;;;;;;4055127;29;20075;-66
2023/02/03 08:01:39;;;;;;;16.20;3.22;;;16.30;73.50;;;;;;4062815;29;20047;-66
2023/02/03 08:04:20;;;;;;;10.23;2.47;;;16.40;73.10;;;;;;4063314;29;20051;-66
2023/02/03 08:07:01;;;;;;;11.70;2.67;;;16.40;72.90;;;;;;4051498;29;20522;-66
2023/02/03 08:09:42;;;;;;;13.18;3.20;;;16.40;72.70;;;;;;4062775;29;20503;-66
2023/02/03 08:12:23;;;;;;;10.85;2.78;;;16.50;72.50;;;;;;4051110;29;20059;-66
2023/02/03 08:15:07;;;;;;;10.57;2.85;;;16.50;72.30;;;;;;4058982;29;20052;-66
2023/02/03 08:17:49;;;;;;;12.90;3.40;;;16.50;72.20;;;;;;4062725;29;20055;-66
2023/02/03 08:20:30;;;;;;;12.52;2.63;;;16.50;72.30;;;;;;4062940;29;20055;-66
2023/02/03 08:23:11;;;;;;;14.98;3.03;;;16.60;72.10;;;;;;4062754;29;20062;-65
2023/02/03 08:25:52;;;;;;;12.60;3.15;;;16.60;71.90;;;;;;4063069;29;20176;-65
2023/02/03 08:28:33;;;;;;;14.07;3.33;;;16.70;71.60;;;;;;4042304;29;20054;-65
2023/02/03 08:31:16;;;;;;;17.63;3.63;;;16.60;71.50;;;;;;4062719;29;20188;-66
2023/02/03 08:33:57;;;;;;;8.50;2.55;;;16.60;71.50;;;;;;4047043;29;20108;-64
2023/02/03 08:36:38;;;;;;;13.52;4.30;;;16.60;71.80;;;;;;4050672;29;20063;-66
2023/02/03 08:39:19;;;;;;;14.50;3.17;;;16.50;72.00;;;;;;4059577;29;20204;-65
2023/02/03 08:42:02;;;;;;;16.83;3.50;;;16.50;72.10;;;;;;4046947;29;20051;-66
2023/02/03 08:44:44;;;;;;;16.08;3.83;;;16.50;72.30;;;;;;4053939;29;20098;-65
2023/02/03 08:47:26;;;;;;;15.95;3.17;;;16.40;72.20;;;;;;4057510;29;20142;-64
2023/02/03 08:50:08;;;;;;;14.35;4.00;;;16.40;72.30;;;;;;4062478;29;20051;-66
2023/02/03 08:52:49;;;;;;;16.92;3.75;;;16.40;72.40;;;;;;4062336;29;20063;-67
2023/02/03 08:55:30;;;;;;;16.35;3.72;;;16.40;72.60;;;;;;4062520;29;20055;-68
2023/02/03 08:58:11;;;;;;;14.95;2.45;;;16.30;72.90;;;;;;4055467;29;20115;-67
2023/02/03 09:00:54;;;;;;;23.02;4.32;;;16.20;73.20;;;;;;4062071;29;20110;-68
2023/02/03 09:03:36;;;;;;;13.43;3.72;;;16.20;73.40;;;;;;4054237;29;20070;-68
2023/02/03 09:06:17;;;;;;;16.42;4.07;;;16.00;73.60;;;;;;4062595;29;20499;-67
2023/02/03 09:09:01;;;;;;;20.23;4.72;;;16.00;74.10;;;;;;4060056;29;20063;-68
2023/02/03 09:11:42;;;;;;;17.43;3.50;;;15.90;74.30;;;;;;4063066;29;20059;-69
2023/02/03 09:14:25;;;;;;;18.83;3.55;;;15.90;74.40;;;;;;4065366;29;20055;-68
2023/02/03 09:17:08;;;;;;;15.73;4.03;;;15.80;75.10;;;;;;4064931;29;20063;-67
2023/02/03 09:19:50;;;;;;;24.08;4.75;;;15.80;74.90;;;;;;4064911;29;20059;-68
2023/02/03 09:22:31;;;;;;;19.55;3.47;;;15.70;76.30;;;;;;4064924;29;20063;-68
2023/02/03 09:25:12;;;;;;;15.65;3.67;;;15.70;75.60;;;;;;4064852;29;20215;-67
2023/02/03 09:27:53;;;;;;;;;;;15.70;76.10;;;;;;4065319;29;20059;-67
2023/02/03 09:30:35;;;;;;;18.67;4.53;;;15.70;76.10;;;;;;4064980;29;19930;-64
2023/02/03 09:33:16;;;;;;;19.60;3.95;;;15.80;75.70;;;;;;4064521;29;20448;-63
2023/02/03 09:35:59;;;;;;;21.80;4.60;;;15.90;75.40;;;;;;4064987;29;20070;-64
2023/02/03 09:38:40;;;;;;;19.55;4.15;;;15.90;75.10;;;;;;4064913;29;20059;-64
2023/02/03 09:41:34;;;;;;;25.90;5.18;;;16.00;74.70;;;;;;4064884;29;20384;-65
2023/02/03 09:44:22;;;;;;;20.15;5.15;;;16.00;74.70;;;;;;4063666;29;20063;-67
2023/02/03 09:47:10;;;;;;;19.85;3.78;;;15.90;74.50;;;;;;4052322;29;20059;-65
2023/02/03 09:49:55;;;;;;;18.63;3.58;;;16.00;74.70;;;;;;4064029;29;20191;-66
2023/02/03 09:52:40;;;;;;;19.67;3.92;;;15.90;74.80;;;;;;4052543;29;20067;-65
2023/02/03 09:55:27;;;;;;;25.35;4.82;;;16.00;74.70;;;;;;4063911;29;20059;-65
2023/02/03 09:58:12;;;;;;;20.13;4.32;;;16.00;74.40;;;;;;4052733;29;20059;-65
2023/02/03 10:00:56;;;;;;;22.20;4.03;;;16.10;73.90;;;;;;4064176;29;20200;-67
2023/02/03 10:03:44;;;;;;;26.65;4.82;;;16.10;74.00;;;;;;4063873;29;20099;-66
2023/02/03 10:06:32;;;;;;;26.20;5.00;;;16.10;73.80;;;;;;4064251;29;20187;-67
2023/02/03 10:09:26;;;;;;;21.95;4.53;;;16.10;73.90;;;;;;4063939;29;20059;-68
2023/02/03 10:12:36;;;;;;;21.58;4.93;;;16.10;73.80;;;;;;4051973;29;20098;-68
2023/02/03 10:15:37;;;;;;;24.80;4.88;;;16.10;73.90;;;;;;4063512;29;20054;-67
2023/02/03 10:18:21;;;;;;;20.33;4.50;;;16.10;74.00;;;;;;4047866;29;20054;-67
2023/02/03 10:21:10;;;;;;;22.67;5.05;;;16.10;74.10;;;;;;4048257;29;20770;-64
2023/02/03 10:23:55;;;;;;;22.58;5.32;;;16.20;73.70;;;;;;4048899;29;20059;-64
2023/02/03 10:26:39;;;;;;;23.25;5.38;;;16.30;73.10;;;;;;4063838;29;20059;-64
2023/02/03 10:29:24;;;;;;;23.50;4.57;;;16.30;72.80;;;;;;4063534;29;20134;-67
2023/02/03 10:32:09;;;;;;;22.02;5.15;;;16.30;72.80;;;;;;4063586;29;20063;-67
2023/02/03 10:34:50;;;;;;;24.52;5.43;;;16.30;72.40;;;;;;4063557;29;20690;-67
2023/02/03 10:37:35;;;;;;;22.17;5.03;;;16.30;72.60;;;;;;4063267;29;20197;-67
2023/02/03 10:40:16;;;;;;;24.30;5.00;;;16.30;72.60;;;;;;4063401;29;20059;-67
2023/02/03 10:45:58;;;;;;;20.60;4.53;;;16.40;71.90;;;;;;4063218;29;20188;-66
2023/02/03 10:48:40;;;;;;;26.98;5.55;;;16.40;72.20;;;;;;4062778;29;20048;-66
2023/02/03 10:51:24;;;;;;;27.35;5.28;;;16.40;72.30;;;;;;4062920;29;20069;-67
2023/02/03 10:54:05;;;;;;;24.42;5.45;;;16.40;72.50;;;;;;4063049;29;20055;-65
2023/02/03 10:56:45;;;;;;;26.77;5.15;;;16.40;72.10;;;;;;4062609;29;20054;-66
2023/02/03 10:59:32;;;;;;;27.45;6.32;;;16.50;72.10;;;;;;4063385;29;20157;-66
2023/02/03 11:02:24;;;;;;;25.75;5.88;;;16.50;71.70;;;;;;4063124;29;20047;-66
2023/02/03 11:05:10;;;;;;;27.58;6.00;;;16.50;71.50;;;;;;4062681;29;20123;-66
2023/02/03 11:07:52;;;;;;;29.02;6.13;;;16.60;71.30;;;;;;4063428;29;20396;-66
2023/02/03 11:10:35;;;;;;;26.67;5.72;;;16.50;71.20;;;;;;4051113;29;20131;-65
2023/02/03 11:13:21;;;;;;;32.63;6.82;;;16.50;71.20;;;;;;4062895;29;20412;-65
2023/02/03 11:16:06;;;;;;;26.95;5.38;;;16.40;71.60;;;;;;4062844;29;20054;-65
2023/02/03 11:18:52;;;;;;;28.23;6.85;;;16.40;71.60;;;;;;4062933;29;20396;-65
2023/02/03 11:21:41;;;;;;;24.35;5.68;;;16.40;71.50;;;;;;4051523;29;20062;-65
2023/02/03 11:24:24;;;;;;;26.42;5.53;;;16.40;70.60;;;;;;4063076;29;20485;-65
2023/02/03 11:27:07;;;;;;;28.33;6.07;;;16.40;71.00;;;;;;4063008;29;20051;-65
2023/02/03 11:29:53;;;;;;;31.95;5.68;;;16.40;72.10;;;;;;4062802;29;20051;-65
2023/02/03 11:32:37;;;;;;;27.65;6.50;;;16.40;71.80;;;;;;4062918;29;20160;-68
2023/02/03 11:35:21;;;;;;;28.80;6.93;;;16.40;71.60;;;;;;4062550;29;20514;-68
2023/02/03 11:38:04;;;;;;;30.10;6.60;;;16.40;70.70;;;;;;4062612;29;20098;-68
2023/02/03 11:40:44;;;;;;;27.75;6.13;;;16.50;71.90;;;;;;4062843;29;20144;-67
2023/02/03 11:43:27;;;;;;;31.75;6.40;;;16.50;70.00;;;;;;4062774;29;20050;-68
2023/02/03 11:46:09;;;;;;;28.92;5.68;;;16.50;70.00;;;;;;4051256;29;20396;-68
2023/02/03 11:49:04;;;;;;;34.45;6.93;;;16.40;70.20;;;;;;4062884;29;20055;-67
2023/02/03 11:51:54;;;;;;;30.80;6.10;;;16.40;69.50;;;;;;4062255;29;20078;-68
2023/02/03 11:54:46;;;;;;;24.00;6.00;;;16.40;70.20;;;;;;4062390;29;20059;-68
2023/02/03 11:57:36;;;;;;;28.60;6.20;;;16.40;70.70;;;;;;4062043;29;20059;-67
2023/02/03 12:00:29;;;;;;;23.13;5.30;;;16.40;68.30;;;;;;4062556;29;20510;-68
2023/02/03 12:03:50;;;;;;;36.60;6.13;;;16.40;69.50;;;;;;4046786;29;20067;-67
2023/02/03 12:06:54;;;;;;;26.45;5.50;;;16.30;68.70;;;;;;4024490;29;20059;-67
2023/02/03 12:09:50;;;;;;;27.42;6.55;;;16.30;70.00;;;;;;4046984;29;20396;-67
2023/02/03 12:12:43;;;;;;;24.08;4.70;;;16.20;69.40;;;;;;4047180;29;20056;-67
2023/02/03 12:15:40;;;;;;;34.53;6.35;;;16.30;70.70;;;;;;4053675;29;20127;-68
2023/02/03 12:18:34;;;;;;;27.58;5.40;;;16.20;70.60;;;;;;4061904;29;20057;-68
2023/02/03 12:21:38;;;;;;;27.90;6.45;;;16.30;70.60;;;;;;4062464;29;20047;-67
2023/02/03 12:24:32;;;;;;;24.20;5.57;;;16.20;69.60;;;;;;4062027;29;20387;-67
2023/02/03 12:27:25;;;;;;;20.27;3.65;;;16.20;70.30;;;;;;4046514;29;20067;-67
2023/02/03 12:30:15;;;;;;;24.20;5.85;;;16.20;71.00;;;;;;4046901;29;20055;-67
2023/02/03 12:32:59;;;;;;;24.98;5.28;;;16.20;70.80;;;;;;4046774;29;20052;-67
2023/02/03 12:35:50;;;;;;;23.00;5.88;;;16.20;70.70;;;;;;4046737;29;20054;-67
2023/02/03 12:38:39;;;;;;;32.88;6.50;;;16.30;68.80;;;;;;4061228;29;20412;-65
2023/02/03 12:41:25;;;;;;;25.45;4.50;;;16.30;69.70;;;;;;4050354;29;20050;-64
2023/02/03 12:44:17;;;;;;;23.60;5.03;;;16.30;70.20;;;;;;4062286;29;20403;-66
2023/02/03 12:47:04;;;;;;;28.67;5.85;;;16.30;70.00;;;;;;4063080;29;20111;-67
2023/02/03 12:49:51;;;;;;;24.17;4.22;;;16.30;68.40;;;;;;4063495;29;20051;-66
2023/02/03 12:52:38;;;;;;;22.20;5.22;;;16.20;69.70;;;;;;4064565;29;20061;-66
2023/02/03 12:55:27;;;;;;;21.98;4.78;;;16.20;68.70;;;;;;4060247;29;20055;-66
2023/02/03 12:58:13;;;;;;;24.67;5.93;;;16.20;69.40;;;;;;4061666;29;20054;-67
2023/02/03 13:00:59;;;;;;;23.73;5.20;;;16.10;68.80;;;;;;4049476;29;20135;-67
2023/02/03 13:03:45;;;;;;;28.35;4.85;;;16.10;69.80;;;;;;4055375;29;20055;-66
2023/02/03 13:06:32;;;;;;;28.55;4.97;;;16.00;69.30;;;;;;4058538;29;20055;-66
2023/02/03 13:09:25;;;;;;;23.85;5.15;;;15.90;69.60;;;;;;4081009;29;20082;-66
2023/02/03 13:12:10;;;;;;;29.27;5.90;;;15.90;70.10;;;;;;4063309;29;20094;-64
2023/02/03 13:14:59;;;;;;;27.40;7.10;;;15.80;69.20;;;;;;4064761;29;20262;-66
2023/02/03 13:17:48;;;;;;;29.23;5.88;;;15.80;69.20;;;;;;4068745;29;20062;-66
2023/02/03 13:20:34;;;;;;;29.92;5.28;;;15.70;69.00;;;;;;4055365;29;20051;-66
2023/02/03 13:23:16;;;;;;;33.17;7.53;;;15.70;70.20;;;;;;4063942;29;20055;-66
2023/02/03 13:26:32;;;;;;;28.60;5.70;;;15.60;70.60;;;;;;4064317;29;20059;-65
2023/02/03 13:29:42;;;;;;;30.55;7.13;;;15.60;70.90;;;;;;4064557;29;20060;-63
2023/02/03 13:32:47;;;;;;;26.20;6.35;;;15.50;69.90;;;;;;4064277;29;20119;-66
2023/02/03 13:35:41;;;;;;;30.27;6.18;;;15.50;70.80;;;;;;4064279;29;20063;-65
2023/02/03 13:38:37;;;;;;;28.20;5.82;;;15.40;70.30;;;;;;4064352;29;20051;-66
2023/02/03 13:41:22;;;;;;;26.02;6.10;;;15.40;71.00;;;;;;4064712;29;20131;-65
2023/02/03 13:44:04;;;;;;;30.25;6.57;;;15.30;72.00;;;;;;4063966;29;20119;-65
2023/02/03 13:46:48;;;;;;;29.45;5.63;;;15.30;70.70;;;;;;4064499;29;20098;-65
2023/02/03 13:49:33;;;;;;;29.92;5.97;;;15.30;72.10;;;;;;4064593;29;20408;-65
2023/02/03 13:52:34;;;;;;;29.25;6.63;;;15.30;71.60;;;;;;4064770;29;20079;-65
2023/02/03 13:55:35;;;;;;;31.35;7.35;;;15.20;72.10;;;;;;4064323;29;20058;-66
2023/02/03 13:58:20;;;;;;;;;;;15.20;70.80;;;;;;4080150;29;20054;-65
2023/02/03 14:01:05;;;;;;;32.00;7.68;;;15.20;70.90;;;;;;4079810;29;19929;-65
2023/02/03 14:03:47;;;;;;;25.77;6.20;;;15.20;70.80;;;;;;4070455;29;20055;-66
2023/02/03 14:07:04;;;;;;;28.73;5.93;;;15.10;70.60;;;;;;4054826;29;20531;-65
2023/02/03 14:09:48;;;;;;;34.67;6.13;;;15.10;69.70;;;;;;4064190;29;20188;-65
2023/02/03 14:12:39;;;;;;;32.38;6.63;;;15.10;71.70;;;;;;4064337;29;20406;-65
2023/02/03 14:15:32;;;;;;;23.90;6.13;;;15.00;71.50;;;;;;4063974;29;20059;-64
2023/02/03 14:18:34;;;;;;;25.13;4.90;;;15.00;72.20;;;;;;4064031;29;20135;-65
2023/02/03 14:21:19;;;;;;;28.58;5.13;;;15.00;71.90;;;;;;4048107;29;20056;-65